• Join FlightAware (Why Join?)
  • Login
  • US Flag 
04:56AM EDT


 

Airport Tracker/Info


-or-


 

Live Flight TrackerFlight Track Log ✈ JIA2342 ✈ 19-Jul-2013 ✈ KDCA - KALB

Flight Track Log - Related Links

Times and Time Zones

All times are in EDT time to prevent confusion due to time zone crossing. See the JIA2342 flight status page for this flight to view local times or setup timezone preferences in your user account.

Time Position Orientation Groundspeed Altitude Reporting Facility
EDT Latitude Longitude Course Direction KTS MPH feet Rate Location/Type
08:51PM 38.8000 -77.0333 90° East 178 205 1,700  Level Potomac TRACON
08:52PM 38.7500 -77.0000 153° Southeast 256 295 3,700 2,280 Climbing Potomac TRACON
08:53PM 38.9279 -76.7830 67° East  Level FlightAware Approximate
08:54PM 38.9787 -76.6593 57° Northeast  Level FlightAware Approximate
08:54PM 38.7631 -76.8375 84° East 301 346 8,000  Level Washington Center
08:55PM 39.0275 -76.5342 67° East  Level FlightAware Approximate
08:55PM 38.7808 -76.7314 78° East 301 346 9,600  Level Washington Center
08:56PM 39.0771 -76.4090 61° Northeast  Level FlightAware Approximate
08:56PM 38.8378 -76.6497 48° Northeast 289 333 11,300  Level Washington Center
08:57PM 39.1167 -76.2815 90° East  Level FlightAware Approximate
08:57PM 38.9011 -76.5653 46° Northeast 296 341 12,600  Level Washington Center
08:58PM 38.9706 -76.4728 46° Northeast 328 377 13,800 1,140 Climbing Washington Center
08:59PM 39.0422 -76.3772 46° Northeast 351 404 15,000 1,260 Climbing Washington Center
09:00PM 39.1094 -76.2897 45° Northeast 368 423 16,300 1,320 Climbing Washington Center
09:01PM 39.1622 -76.1458 65° Northeast 368 423 17,700 1,200 Climbing Washington Center
09:02PM 39.1794 -76.0147 80° East 360 414 18,800 960 Climbing Washington Center
09:03PM 39.1964 -75.8808 81° East 366 421 19,700 780 Climbing Washington Center
09:04PM 39.2717 -75.7767 47° Northeast 359 413 20,400 660 Climbing Washington Center
09:05PM 39.3489 -75.6775 45° Northeast 382 440 21,100 660 Climbing Washington Center
09:06PM 39.4303 -75.5728 45° Northeast 388 447 21,800 660 Climbing Washington Center
09:07PM 39.5133 -75.4650 45° Northeast 400 460 22,500 660 Climbing Washington Center
09:08PM 39.5925 -75.3625 45° Northeast 405 466 23,200 720 Climbing Washington Center
09:09PM 39.6736 -75.2544 46° Northeast 405 466 24,000 720 Climbing Washington Center
09:10PM 39.7711 -75.1111 48° Northeast 421 484 24,900 660 Climbing New York Center
09:11PM 39.8481 -74.9997 48° Northeast 421 484 25,600 600 Climbing New York Center
09:12PM 39.9250 -74.8906 47° Northeast 421 484 26,200 600 Climbing New York Center
09:13PM 40.0058 -74.7789 47° Northeast 421 484 26,900 540 Climbing New York Center
09:15PM 40.0825 -74.6694 48° Northeast 421 484 27,400 480 Climbing New York Center
09:15PM 40.1672 -74.5628 44° Northeast 421 484 27,900 480 Climbing New York Center
09:16PM 40.2581 -74.4589 41° Northeast 422 486 28,400 540 Climbing New York Center
09:17PM 40.3467 -74.3603 40° Northeast 422 486 29,000 120 Climbing New York Center
09:19PM 40.5094 -74.1761 41° Northeast 422 486 28,800 -660 Descending Boston Center
09:20PM 40.6006 -74.0747 40° Northeast 422 486 27,200 -1,740 Descending Boston Center
09:21PM 40.7000 -73.9675 39° Northeast 427 491 25,400 -1,620 Descending Boston Center
09:22PM 40.7867 -73.8736 39° Northeast 408 470 24,000 -720 Descending Boston Center
09:23PM 40.8731 -73.7961 34° Northeast 394 453 24,000 -300 Level Boston Center
09:24PM 40.9753 -73.7733 10° North 367 422 23,400 -840 Descending Boston Center
09:25PM 41.0817 -73.7619 North 367 422 22,400 -1,020 Descending Boston Center
09:26PM 41.1817 -73.7639 359° North 367 422 21,400 -1,020 Descending Boston Center
09:27PM 41.2819 -73.7633 360° North 367 422 20,400 -1,080 Descending Boston Center
09:28PM 41.3797 -73.7681 358° North 362 417 19,300 -960 Descending Boston Center
09:29PM 41.4778 -73.7561 North 362 417 18,500 -1,020 Descending Boston Center
09:30PM 41.5683 -73.6886 29° Northeast 357 411 17,300 -1,080 Descending Boston Center
09:31PM 41.6586 -73.6267 27° Northeast 357 411 16,400 -1,080 Descending Boston Center
09:32PM 41.7481 -73.6308 358° North 326 375 15,200 -1,200 Descending Boston Center
09:33PM 41.8356 -73.6439 354° North 315 362 14,000 -1,320 Descending Boston Center
09:34PM 41.8936 -73.6533 353° North 311 358 13,100 -1,320 Descending Boston Center
09:35PM 41.9997 -73.6719 353° North 311 358 11,600 -1,020 Descending Boston Center
09:36PM 42.0706 -73.6847 352° North 307 353 11,000 -360 Descending Boston Center
09:37PM 42.1581 -73.6975 354° North 296 341 11,000 -420 Level Boston Center
09:38PM 42.2392 -73.6992 359° North 288 331 10,200 -1,380 Descending Boston Center
09:39PM 42.3247 -73.6953 North 284 327 8,100 -1,860 Descending Boston Center
09:40PM 42.4103 -73.6858 North 282 325 6,100 -1,800 Descending Boston Center
09:41PM 42.4728 -73.6842 North 275 316 4,700 -1,080 Descending Boston Center
09:42PM 42.5606 -73.6719 North 271 312 4,000 -360 Descending Boston Center
09:43PM 42.6356 -73.6650 North 271 312 4,000 -300 Level Boston Center
09:44PM 42.7044 -73.6664 359° North 258 297 3,400 -540 Descending Boston Center
09:45PM 42.7647 -73.6789 351° North 224 258 3,000 -480 Descending Boston Center
09:46PM 42.8250 -73.6856 355° North 208 239 2,500 -540 Descending Boston Center